createdAt,value
2017-07-09T00:00:28.188Z,0
2017-07-09T00:01:30.253Z,0
2017-07-09T00:02:32.312Z,0
2017-07-09T00:03:34.379Z,0
2017-07-09T00:04:36.427Z,0
2017-07-09T00:05:38.492Z,0
2017-07-09T00:06:40.555Z,0
2017-07-09T00:07:42.618Z,0
2017-07-09T00:08:44.683Z,0
2017-07-09T00:09:46.741Z,0
2017-07-09T00:10:48.799Z,0
2017-07-09T00:11:50.862Z,0
2017-07-09T00:12:52.909Z,0
2017-07-09T00:13:54.976Z,0
2017-07-09T00:14:57.026Z,0
2017-07-09T00:15:59.077Z,0
2017-07-09T00:17:01.142Z,0
2017-07-09T00:18:03.196Z,0
2017-07-09T00:19:05.264Z,0
2017-07-09T00:20:07.322Z,0
2017-07-09T00:21:09.376Z,0
2017-07-09T00:22:11.434Z,0
2017-07-09T00:23:13.481Z,0
2017-07-09T00:24:15.550Z,0
2017-07-09T00:25:17.611Z,0
2017-07-09T00:26:19.669Z,0
2017-07-09T00:27:22.082Z,0
2017-07-09T00:28:24.141Z,0
2017-07-09T00:29:26.201Z,0
2017-07-09T00:30:28.257Z,0
2017-07-09T00:31:30.314Z,0
2017-07-09T00:32:32.371Z,0
2017-07-09T00:33:34.436Z,0
2017-07-09T00:34:36.495Z,0
2017-07-09T00:35:38.554Z,0
2017-07-09T00:36:40.623Z,0
2017-07-09T00:37:42.690Z,0
2017-07-09T00:38:44.737Z,0
2017-07-09T00:39:46.797Z,0
2017-07-09T00:40:48.850Z,0
2017-07-09T00:41:50.910Z,0
2017-07-09T00:42:52.978Z,0
2017-07-09T00:43:55.042Z,0
2017-07-09T00:44:57.104Z,0
2017-07-09T00:45:59.497Z,0
2017-07-09T00:47:01.898Z,0
2017-07-09T00:48:04.320Z,0
2017-07-09T00:49:06.379Z,0
2017-07-09T00:50:08.440Z,0
2017-07-09T00:51:10.503Z,0
2017-07-09T00:52:12.562Z,0
2017-07-09T00:53:14.620Z,0
2017-07-09T00:54:16.684Z,0
2017-07-09T00:55:18.736Z,0
2017-07-09T00:56:20.799Z,0
2017-07-09T00:57:22.859Z,0
2017-07-09T00:58:24.915Z,0
2017-07-09T00:59:26.977Z,0
2017-07-09T01:00:29.034Z,0
2017-07-09T01:01:31.099Z,0
2017-07-09T01:02:33.157Z,0
2017-07-09T01:03:35.213Z,0
2017-07-09T01:04:37.292Z,0
2017-07-09T01:05:39.351Z,0
2017-07-09T01:06:41.408Z,0
2017-07-09T01:07:43.473Z,0
2017-07-09T01:08:45.549Z,0
2017-07-09T01:09:47.604Z,0
2017-07-09T01:10:49.654Z,0
2017-07-09T01:11:51.727Z,0
2017-07-09T01:12:53.790Z,0
2017-07-09T01:13:55.847Z,0
2017-07-09T01:14:57.909Z,0
2017-07-09T01:15:59.966Z,0
2017-07-09T01:17:02.024Z,0
2017-07-09T01:18:04.088Z,0
2017-07-09T01:19:06.476Z,0
2017-07-09T01:20:08.553Z,0
2017-07-09T01:21:10.605Z,0
2017-07-09T01:22:12.665Z,0
2017-07-09T01:23:14.726Z,0
2017-07-09T01:24:16.782Z,0
2017-07-09T01:25:18.838Z,0
2017-07-09T01:26:20.902Z,0
2017-07-09T01:27:22.965Z,0
2017-07-09T01:28:25.030Z,0
2017-07-09T01:29:27.088Z,0
2017-07-09T01:30:29.137Z,0
2017-07-09T01:31:31.209Z,0
2017-07-09T01:32:33.260Z,0
2017-07-09T01:33:35.318Z,0
2017-07-09T01:34:37.369Z,0
2017-07-09T01:35:39.425Z,0
2017-07-09T01:36:41.484Z,0
2017-07-09T01:37:43.549Z,0
2017-07-09T01:38:45.597Z,0
2017-07-09T01:39:47.657Z,0
2017-07-09T01:40:49.706Z,0
2017-07-09T01:41:51.766Z,0
2017-07-09T01:42:53.826Z,0
2017-07-09T01:43:55.881Z,0
2017-07-09T01:44:57.948Z,0
2017-07-09T01:46:00.010Z,0
2017-07-09T01:47:02.051Z,0
2017-07-09T01:48:04.414Z,0
2017-07-09T01:49:06.472Z,0
2017-07-09T01:50:08.533Z,0
2017-07-09T01:51:10.591Z,0
2017-07-09T01:52:12.655Z,0
2017-07-09T01:53:14.716Z,0
2017-07-09T01:54:16.764Z,0
2017-07-09T01:55:18.826Z,0
2017-07-09T01:56:20.881Z,0
2017-07-09T01:57:22.940Z,0
2017-07-09T01:58:24.993Z,0
2017-07-09T01:59:27.054Z,0
2017-07-09T02:00:29.101Z,0
2017-07-09T02:01:31.161Z,0
2017-07-09T02:02:33.217Z,0
2017-07-09T02:03:35.276Z,0
2017-07-09T02:04:37.335Z,0
2017-07-09T02:05:39.389Z,0
2017-07-09T02:06:41.439Z,0
2017-07-09T02:07:43.498Z,0
2017-07-09T02:08:45.560Z,4
2017-07-09T02:09:47.618Z,4
2017-07-09T02:10:49.668Z,4
2017-07-09T02:11:51.716Z,0
2017-07-09T02:12:53.783Z,0
2017-07-09T02:13:55.843Z,4
2017-07-09T02:14:57.907Z,4
2017-07-09T02:15:59.960Z,4
2017-07-09T02:17:02.012Z,4
2017-07-09T02:18:04.071Z,8
2017-07-09T02:19:06.116Z,4
2017-07-09T02:20:08.188Z,8
2017-07-09T02:21:10.251Z,8
2017-07-09T02:22:12.301Z,8
2017-07-09T02:23:14.365Z,12
2017-07-09T02:24:16.423Z,12
2017-07-09T02:25:18.481Z,16
2017-07-09T02:26:20.539Z,16
2017-07-09T02:27:22.599Z,20
2017-07-09T02:28:24.658Z,20
2017-07-09T02:29:26.718Z,24
2017-07-09T02:30:29.114Z,24
2017-07-09T02:31:31.174Z,28
2017-07-09T02:32:33.242Z,32
2017-07-09T02:33:35.300Z,36
2017-07-09T02:34:37.348Z,44
2017-07-09T02:35:39.409Z,48
2017-07-09T02:36:41.461Z,52
2017-07-09T02:37:43.517Z,60
2017-07-09T02:38:45.576Z,68
2017-07-09T02:39:47.640Z,72
2017-07-09T02:40:49.702Z,80
2017-07-09T02:41:51.754Z,92
2017-07-09T02:42:53.809Z,100
2017-07-09T02:43:55.876Z,112
2017-07-09T02:44:57.938Z,120
2017-07-09T02:45:59.995Z,136
2017-07-09T02:47:02.062Z,148
2017-07-09T02:48:04.121Z,160
2017-07-09T02:49:06.179Z,176
2017-07-09T02:50:08.234Z,192
2017-07-09T02:51:10.290Z,212
2017-07-09T02:52:12.354Z,224
2017-07-09T02:53:14.416Z,248
2017-07-09T02:54:16.473Z,268
2017-07-09T02:55:18.533Z,288
2017-07-09T02:56:20.593Z,308
2017-07-09T02:57:22.646Z,332
2017-07-09T02:58:25.043Z,352
2017-07-09T02:59:27.105Z,380
2017-07-09T03:00:29.169Z,404
2017-07-09T03:01:31.225Z,432
2017-07-09T03:02:33.284Z,464
2017-07-09T03:03:35.335Z,488
2017-07-09T03:04:37.401Z,520
2017-07-09T03:05:39.455Z,548
2017-07-09T03:06:41.515Z,584
2017-07-09T03:07:43.584Z,612
2017-07-09T03:08:45.638Z,648
2017-07-09T03:09:47.692Z,676
2017-07-09T03:10:49.750Z,712
2017-07-09T03:11:51.811Z,748
2017-07-09T03:12:53.866Z,780
2017-07-09T03:13:55.921Z,816
2017-07-09T03:14:57.991Z,852
2017-07-09T03:16:00.048Z,884
2017-07-09T03:17:02.096Z,920
2017-07-09T03:18:04.163Z,956
2017-07-09T03:19:06.222Z,992
2017-07-09T03:20:08.285Z,1028
2017-07-09T03:21:10.343Z,1068
2017-07-09T03:22:12.398Z,1104
2017-07-09T03:23:14.458Z,1140
2017-07-09T03:24:16.524Z,1180
2017-07-09T03:25:18.587Z,1212
2017-07-09T03:26:20.633Z,1252
2017-07-09T03:27:22.693Z,1284
2017-07-09T03:28:24.759Z,1320
2017-07-09T03:29:26.814Z,1360
2017-07-09T03:30:29.218Z,1392
2017-07-09T03:31:31.276Z,1432
2017-07-09T03:32:33.340Z,1464
2017-07-09T03:33:35.392Z,1504
2017-07-09T03:34:37.448Z,1540
2017-07-09T03:35:39.515Z,1576
2017-07-09T03:36:42.262Z,1616
2017-07-09T03:37:44.382Z,1652
2017-07-09T03:38:46.380Z,1688
2017-07-09T03:39:48.435Z,1720
2017-07-09T03:40:50.500Z,1756
2017-07-09T03:41:52.902Z,1788
2017-07-09T03:42:55.318Z,1824
2017-07-09T03:43:57.378Z,1856
2017-07-09T03:44:59.433Z,1888
2017-07-09T03:46:01.488Z,1920
2017-07-09T03:47:03.558Z,1948
2017-07-09T03:48:05.613Z,1984
2017-07-09T03:49:07.681Z,2012
2017-07-09T03:50:09.740Z,2044
2017-07-09T03:51:11.805Z,2072
2017-07-09T03:52:13.863Z,2100
2017-07-09T03:53:15.923Z,2136
2017-07-09T03:54:18.322Z,2164
2017-07-09T03:55:20.393Z,2192
2017-07-09T03:56:22.453Z,2220
2017-07-09T03:57:24.514Z,2248
2017-07-09T03:58:26.568Z,2280
2017-07-09T03:59:28.623Z,2304
2017-07-09T04:00:30.686Z,2332
2017-07-09T04:01:32.745Z,2356
2017-07-09T04:02:34.800Z,2384
2017-07-09T04:03:36.859Z,2412
2017-07-09T04:04:38.918Z,2436
2017-07-09T04:05:40.985Z,2464
2017-07-09T04:06:43.036Z,2492
2017-07-09T04:07:45.443Z,2524
2017-07-09T04:08:47.507Z,2556
2017-07-09T04:09:49.567Z,2580
2017-07-09T04:10:51.624Z,2612
2017-07-09T04:11:53.692Z,2648
2017-07-09T04:12:55.757Z,2680
2017-07-09T04:13:57.820Z,2720
2017-07-09T04:14:59.879Z,2764
2017-07-09T04:16:01.942Z,2816
2017-07-09T04:17:03.999Z,2864
2017-07-09T04:18:06.057Z,2896
2017-07-09T04:19:08.118Z,2928
2017-07-09T04:20:10.184Z,2960
2017-07-09T04:21:12.239Z,2988
2017-07-09T04:22:14.299Z,3012
2017-07-09T04:23:16.360Z,3040
2017-07-09T04:24:18.421Z,3060
2017-07-09T04:25:20.478Z,3056
2017-07-09T04:26:22.550Z,3048
2017-07-09T04:27:24.611Z,3032
2017-07-09T04:28:26.677Z,3028
2017-07-09T04:29:28.736Z,3028
2017-07-09T04:30:30.804Z,3036
2017-07-09T04:31:32.864Z,3044
2017-07-09T04:32:34.931Z,3056
2017-07-09T04:33:36.995Z,3064
2017-07-09T04:34:39.399Z,3080
2017-07-09T04:35:41.460Z,3092
2017-07-09T04:36:43.527Z,3104
2017-07-09T04:37:45.572Z,3116
2017-07-09T04:38:47.982Z,3124
2017-07-09T04:39:50.045Z,3140
2017-07-09T04:40:52.111Z,3152
2017-07-09T04:41:54.165Z,3168
2017-07-09T04:42:56.238Z,3188
2017-07-09T04:43:58.305Z,3200
2017-07-09T04:45:00.360Z,3212
2017-07-09T04:46:02.424Z,3228
2017-07-09T04:47:04.481Z,3244
2017-07-09T04:48:06.716Z,3252
2017-07-09T04:49:08.793Z,3260
2017-07-09T04:50:10.858Z,3264
2017-07-09T04:51:12.915Z,3200
2017-07-09T04:52:14.973Z,3200
2017-07-09T04:53:17.027Z,3268
2017-07-09T04:54:19.085Z,3316
2017-07-09T04:55:21.148Z,3320
2017-07-09T04:56:23.223Z,3320
2017-07-09T04:57:25.280Z,3428
2017-07-09T04:58:27.342Z,3444
2017-07-09T04:59:29.401Z,3456
2017-07-09T05:00:31.471Z,3472
2017-07-09T05:01:33.531Z,3484
2017-07-09T05:02:35.595Z,3504
2017-07-09T05:03:37.664Z,3516
2017-07-09T05:04:39.726Z,3524
2017-07-09T05:05:41.787Z,3540
2017-07-09T05:06:43.849Z,3540
2017-07-09T05:07:45.922Z,3508
2017-07-09T05:08:47.980Z,3528
2017-07-09T05:09:50.044Z,3552
2017-07-09T05:10:52.115Z,3560
2017-07-09T05:11:54.178Z,3584
2017-07-09T05:12:56.577Z,3612
2017-07-09T05:13:59.054Z,3632
2017-07-09T05:15:01.454Z,3640
2017-07-09T05:16:03.519Z,3596
2017-07-09T05:17:05.582Z,3608
2017-07-09T05:18:07.648Z,3580
2017-07-09T05:19:09.724Z,3600
2017-07-09T05:20:12.136Z,3604
2017-07-09T05:21:14.209Z,3640
2017-07-09T05:22:16.271Z,3680
2017-07-09T05:23:18.333Z,3704
2017-07-09T05:24:20.399Z,3732
2017-07-09T05:25:22.474Z,3764
2017-07-09T05:26:24.537Z,3804
2017-07-09T05:27:26.598Z,3836
2017-07-09T05:28:28.654Z,3884
2017-07-09T05:29:30.734Z,3916
2017-07-09T05:30:32.798Z,3952
2017-07-09T05:31:34.855Z,3968
2017-07-09T05:32:36.924Z,3992
2017-07-09T05:33:38.992Z,4008
2017-07-09T05:34:41.044Z,4028
2017-07-09T05:35:43.100Z,4048
2017-07-09T05:36:45.177Z,4064
2017-07-09T05:37:47.238Z,4080
2017-07-09T05:38:49.301Z,4080
2017-07-09T05:39:51.721Z,4108
2017-07-09T05:40:53.781Z,4120
2017-07-09T05:41:55.848Z,4128
2017-07-09T05:42:57.922Z,4132
2017-07-09T05:43:59.990Z,4064
2017-07-09T05:45:02.081Z,4152
2017-07-09T05:46:04.144Z,4188
2017-07-09T05:47:06.246Z,4208
2017-07-09T05:48:09.560Z,4224
2017-07-09T05:49:11.659Z,4232
2017-07-09T05:50:13.716Z,4252
2017-07-09T05:51:15.787Z,4272
2017-07-09T05:52:17.855Z,4276
2017-07-09T05:53:19.929Z,4288
2017-07-09T05:54:22.367Z,4328
2017-07-09T05:55:24.428Z,4356
2017-07-09T05:56:26.632Z,4372
2017-07-09T05:57:28.760Z,4396
2017-07-09T05:58:30.893Z,4416
2017-07-09T05:59:32.959Z,4448
2017-07-09T06:00:35.365Z,4488
2017-07-09T06:01:37.477Z,4504
2017-07-09T06:02:39.573Z,4520
2017-07-09T06:03:41.638Z,4512
2017-07-09T06:04:43.723Z,4500
2017-07-09T06:05:45.781Z,4516
2017-07-09T06:06:47.965Z,4596
2017-07-09T06:07:50.033Z,4640
2017-07-09T06:08:52.096Z,4660
2017-07-09T06:09:54.331Z,4680
2017-07-09T06:10:56.393Z,4680
2017-07-09T06:11:58.448Z,4692
2017-07-09T06:13:00.512Z,4692
2017-07-09T06:14:02.645Z,4688
2017-07-09T06:15:04.712Z,4720
2017-07-09T06:16:06.772Z,4888
2017-07-09T06:17:08.856Z,5004
2017-07-09T06:18:10.919Z,4784
2017-07-09T06:19:12.989Z,4812
2017-07-09T06:20:15.069Z,4828
2017-07-09T06:21:17.129Z,4904
2017-07-09T06:22:19.200Z,5016
2017-07-09T06:23:21.262Z,5164
2017-07-09T06:24:23.329Z,5384
2017-07-09T06:25:25.395Z,5308
2017-07-09T06:26:27.454Z,5176
2017-07-09T06:27:29.525Z,5096
2017-07-09T06:28:31.606Z,5112
2017-07-09T06:29:59.341Z,5164
2017-07-09T06:31:01.364Z,5280
2017-07-09T06:32:03.364Z,5276
2017-07-09T06:33:05.388Z,5276
2017-07-09T06:34:07.391Z,5308
2017-07-09T06:35:09.418Z,5316
2017-07-09T06:36:11.436Z,5316
2017-07-09T06:37:13.473Z,5348
2017-07-09T06:38:15.486Z,5416
2017-07-09T06:39:17.502Z,5452
2017-07-09T06:40:19.525Z,5308
2017-07-09T06:41:21.554Z,5220
2017-07-09T06:42:23.571Z,5188
2017-07-09T06:43:25.600Z,5188
2017-07-09T06:44:27.613Z,5228
2017-07-09T06:45:29.633Z,5264
2017-07-09T06:46:31.644Z,5236
2017-07-09T06:47:33.666Z,5324
2017-07-09T06:48:35.688Z,5344
2017-07-09T06:49:37.709Z,5396
2017-07-09T06:50:39.717Z,5472
2017-07-09T06:51:42.098Z,5524
2017-07-09T06:52:44.107Z,5572
2017-07-09T06:53:46.133Z,5624
2017-07-09T06:54:48.510Z,5648
2017-07-09T06:55:50.532Z,5676
2017-07-09T06:56:52.553Z,5708
2017-07-09T06:57:54.573Z,5796
2017-07-09T06:58:56.594Z,5864
2017-07-09T06:59:58.616Z,5928
2017-07-09T07:01:00.626Z,5988
2017-07-09T07:02:02.657Z,6024
2017-07-09T07:03:04.682Z,6088
2017-07-09T07:04:06.706Z,6188
2017-07-09T07:05:08.738Z,6576
2017-07-09T07:06:10.747Z,6684
2017-07-09T07:07:12.763Z,6804
2017-07-09T07:08:14.790Z,6728
2017-07-09T07:09:16.795Z,6696
2017-07-09T07:10:18.824Z,6804
2017-07-09T07:11:20.844Z,6980
2017-07-09T07:12:22.871Z,7276
2017-07-09T07:13:24.893Z,7556
2017-07-09T07:14:26.908Z,7804
2017-07-09T07:15:28.921Z,8020
2017-07-09T07:16:30.957Z,8268
2017-07-09T07:17:32.972Z,8496
2017-07-09T07:18:34.999Z,9076
2017-07-09T07:19:37.024Z,9988
2017-07-09T07:20:39.043Z,10760
2017-07-09T07:21:41.064Z,11164
2017-07-09T07:22:43.082Z,11180
2017-07-09T07:23:45.110Z,10944
2017-07-09T07:24:47.135Z,10620
2017-07-09T07:25:49.152Z,10168
2017-07-09T07:26:51.173Z,9964
2017-07-09T07:27:53.198Z,9712
2017-07-09T07:28:55.223Z,9124
2017-07-09T07:29:57.252Z,8216
2017-07-09T07:30:59.279Z,7576
2017-07-09T07:32:01.308Z,7488
2017-07-09T07:33:03.327Z,7184
2017-07-09T07:34:05.353Z,7160
2017-07-09T07:35:07.381Z,7124
2017-07-09T07:36:09.396Z,7044
2017-07-09T07:37:11.759Z,7012
2017-07-09T07:38:13.793Z,7012
2017-07-09T07:39:15.811Z,6964
2017-07-09T07:40:17.840Z,6996
2017-07-09T07:41:20.186Z,6888
2017-07-09T07:42:22.214Z,6820
2017-07-09T07:43:24.234Z,6872
2017-07-09T07:44:26.248Z,7000
2017-07-09T07:45:28.273Z,7116
2017-07-09T07:46:30.300Z,7236
2017-07-09T07:47:32.315Z,7564
2017-07-09T07:48:34.333Z,7516
2017-07-09T07:49:36.350Z,7280
2017-07-09T07:50:38.385Z,7536
2017-07-09T07:51:40.406Z,7584
2017-07-09T07:52:42.431Z,7564
2017-07-09T07:53:44.449Z,7564
2017-07-09T07:54:46.473Z,7476
2017-07-09T07:55:48.494Z,7472
2017-07-09T07:56:50.517Z,7520
2017-07-09T07:57:52.869Z,7612
2017-07-09T07:58:54.895Z,7820
2017-07-09T07:59:56.912Z,8028
2017-07-09T08:00:58.937Z,8188
2017-07-09T08:02:01.008Z,8356
2017-07-09T08:03:02.971Z,8576
2017-07-09T08:04:04.996Z,8872
2017-07-09T08:05:07.032Z,9132
2017-07-09T08:06:09.385Z,9380
2017-07-09T08:07:11.411Z,9616
2017-07-09T08:08:13.438Z,9792
2017-07-09T08:09:15.460Z,9852
2017-07-09T08:10:17.484Z,9796
2017-07-09T08:11:19.507Z,9852
2017-07-09T08:12:21.536Z,10040
2017-07-09T08:13:23.551Z,10092
2017-07-09T08:14:25.569Z,10096
2017-07-09T08:15:27.599Z,10072
2017-07-09T08:16:29.624Z,10040
2017-07-09T08:17:31.979Z,10400
2017-07-09T08:18:34.003Z,10724
2017-07-09T08:19:36.024Z,11180
2017-07-09T08:20:38.042Z,11788
2017-07-09T08:21:40.061Z,12256
2017-07-09T08:22:42.093Z,12784
2017-07-09T08:23:44.115Z,13156
2017-07-09T08:24:46.139Z,13628
2017-07-09T08:25:48.169Z,13692
2017-07-09T08:26:50.193Z,13600
2017-07-09T08:27:52.218Z,13416
2017-07-09T08:28:54.239Z,13192
2017-07-09T08:29:56.275Z,13044
2017-07-09T08:30:58.293Z,12476
2017-07-09T08:32:00.331Z,11908
2017-07-09T08:33:02.351Z,11672
2017-07-09T08:34:04.369Z,19584
2017-07-09T08:35:06.393Z,27168
2017-07-09T08:36:08.417Z,36000
2017-07-09T08:37:10.435Z,31968
2017-07-09T08:38:12.455Z,30688
2017-07-09T08:39:14.485Z,28352
2017-07-09T08:40:16.506Z,25312
2017-07-09T08:41:18.522Z,23232
2017-07-09T08:42:20.550Z,11184
2017-07-09T08:43:22.574Z,26176
2017-07-09T08:44:24.594Z,30112
2017-07-09T08:45:26.617Z,34784
2017-07-09T08:46:28.632Z,24544
2017-07-09T08:47:30.660Z,41824
2017-07-09T08:48:32.681Z,80576
2017-07-09T08:49:34.706Z,100352
2017-07-09T08:50:36.736Z,111520
2017-07-09T08:51:39.096Z,117472
2017-07-09T08:52:41.126Z,126752
2017-07-09T08:53:43.146Z,134272
2017-07-09T08:54:45.237Z,135744
2017-07-09T08:55:47.209Z,124704
2017-07-09T08:56:49.236Z,110528
2017-07-09T08:57:51.306Z,113952
2017-07-09T08:58:53.279Z,114240
2017-07-09T08:59:55.305Z,114624
2017-07-09T09:00:57.329Z,107808
2017-07-09T09:01:59.349Z,98240
2017-07-09T09:03:01.389Z,104384
2017-07-09T09:04:03.418Z,112608
2017-07-09T09:05:05.432Z,116544
2017-07-09T09:06:07.457Z,105952
2017-07-09T09:07:09.489Z,89024
2017-07-09T09:08:11.507Z,92224
2017-07-09T09:09:13.529Z,111616
2017-07-09T09:10:15.569Z,122144
2017-07-09T09:11:17.594Z,120832
2017-07-09T09:12:19.620Z,120096
2017-07-09T09:13:21.642Z,118528
2017-07-09T09:14:23.681Z,121568
2017-07-09T09:15:25.704Z,121472
2017-07-09T09:16:27.732Z,119584
2017-07-09T09:17:29.761Z,118912
2017-07-09T09:18:31.787Z,127744
2017-07-09T09:19:33.818Z,132128
2017-07-09T09:20:35.836Z,137952
2017-07-09T09:21:37.863Z,151200
2017-07-09T09:22:39.891Z,147840
2017-07-09T09:23:41.916Z,128544
2017-07-09T09:24:43.947Z,121536
2017-07-09T09:25:45.970Z,123008
2017-07-09T09:26:48.001Z,120160
2017-07-09T09:27:50.026Z,112544
2017-07-09T09:28:52.052Z,118016
2017-07-09T09:29:54.085Z,126720
2017-07-09T09:30:56.116Z,121728
2017-07-09T09:31:58.146Z,114048
2017-07-09T09:33:00.171Z,122912
2017-07-09T09:34:02.203Z,140608
2017-07-09T09:35:04.233Z,137888
2017-07-09T09:36:06.604Z,136128
2017-07-09T09:37:08.632Z,138400
2017-07-09T09:38:10.667Z,129248
2017-07-09T09:39:12.689Z,124576
2017-07-09T09:40:14.719Z,128064
2017-07-09T09:41:16.746Z,135232
2017-07-09T09:42:19.116Z,129152
2017-07-09T09:43:21.141Z,115296
2017-07-09T09:44:23.182Z,103296
2017-07-09T09:45:25.542Z,110080
2017-07-09T09:46:27.580Z,120128
2017-07-09T09:47:29.609Z,111360
2017-07-09T09:48:31.984Z,107360
2017-07-09T09:49:34.009Z,114624
2017-07-09T09:50:36.034Z,114144
2017-07-09T09:51:38.063Z,110976
2017-07-09T09:52:40.089Z,113792
2017-07-09T09:53:42.124Z,127104
2017-07-09T09:54:44.156Z,127936
2017-07-09T09:55:46.181Z,116384
2017-07-09T09:56:48.214Z,114656
2017-07-09T09:57:50.249Z,139072
2017-07-09T09:58:52.617Z,143488
2017-07-09T09:59:54.654Z,130528
2017-07-09T10:00:56.682Z,130336
2017-07-09T10:01:58.722Z,134144
2017-07-09T10:03:00.751Z,130592
2017-07-09T10:04:02.776Z,132096
2017-07-09T10:05:04.806Z,134272
2017-07-09T10:08:00.198Z,120192
2017-07-09T10:09:02.232Z,126272
2017-07-09T10:10:04.269Z,139648
2017-07-09T10:11:06.912Z,139776
2017-07-09T10:12:09.142Z,133408
2017-07-09T10:13:11.182Z,135552
2017-07-09T10:14:13.380Z,143360
2017-07-09T10:15:15.422Z,141312
2017-07-09T10:16:17.470Z,134720
2017-07-09T10:17:19.529Z,133184
2017-07-09T10:18:21.580Z,138432
2017-07-09T10:19:23.963Z,142176
2017-07-09T10:20:26.020Z,144416
2017-07-09T10:21:28.406Z,146528
2017-07-09T10:22:30.463Z,151744
2017-07-09T10:23:32.517Z,156160
2017-07-09T10:24:34.550Z,144352
2017-07-09T10:25:36.593Z,140320
2017-07-09T10:26:38.645Z,134720
2017-07-09T10:27:40.688Z,138048
2017-07-09T10:28:42.729Z,149440
2017-07-09T10:29:45.054Z,155392
2017-07-09T10:32:19.221Z,161312
2017-07-09T10:33:21.602Z,163520
2017-07-09T10:34:24.013Z,161632
2017-07-09T10:35:27.057Z,159136
2017-07-09T10:36:29.087Z,159584
2017-07-09T10:37:31.135Z,164576
2017-07-09T10:38:33.177Z,157376
2017-07-09T10:39:35.214Z,155008
2017-07-09T10:40:37.251Z,152864
2017-07-09T10:41:39.302Z,145984
2017-07-09T10:42:41.344Z,149408
2017-07-09T10:43:43.382Z,147456
2017-07-09T10:44:45.427Z,154720
2017-07-09T10:45:47.477Z,152928
2017-07-09T10:46:49.515Z,152608
2017-07-09T10:47:51.566Z,149184
2017-07-09T10:48:53.603Z,144672
2017-07-09T10:49:55.659Z,151456
2017-07-09T10:50:57.690Z,169664
2017-07-09T10:51:59.741Z,174240
2017-07-09T10:53:01.772Z,160448
2017-07-09T10:54:03.811Z,153024
2017-07-09T10:55:05.854Z,148608
2017-07-09T10:56:07.915Z,148832
2017-07-09T10:57:09.952Z,148704
2017-07-09T10:58:12.009Z,144192
2017-07-09T10:59:14.050Z,147584
2017-07-09T11:00:16.094Z,148032
2017-07-09T11:01:18.127Z,155392
2017-07-09T11:02:20.176Z,161056
2017-07-09T11:03:22.216Z,164576
2017-07-09T11:04:24.246Z,169376
2017-07-09T11:05:26.293Z,179840
2017-07-09T11:06:28.332Z,166816
2017-07-09T11:07:30.385Z,135040
2017-07-09T11:08:32.420Z,111168
2017-07-09T11:09:34.456Z,111104
2017-07-09T11:10:36.489Z,131040
2017-07-09T11:11:38.529Z,147360
2017-07-09T11:12:40.570Z,144544
2017-07-09T11:13:42.621Z,148288
2017-07-09T11:14:44.664Z,150368
2017-07-09T11:15:46.705Z,160736
2017-07-09T11:16:48.743Z,165280
2017-07-09T11:17:50.786Z,151552
2017-07-09T11:18:52.831Z,138080
2017-07-09T11:19:54.887Z,129664
2017-07-09T11:20:56.929Z,134752
2017-07-09T11:21:58.972Z,132256
2017-07-09T11:23:01.021Z,125152
2017-07-09T11:24:03.054Z,130560
2017-07-09T11:25:05.104Z,139424
2017-07-09T11:26:07.152Z,142176
2017-07-09T11:27:09.194Z,137952
2017-07-09T11:28:11.230Z,128352
2017-07-09T11:29:13.286Z,127936
2017-07-09T11:30:15.326Z,127968
2017-07-09T11:31:17.364Z,128864
2017-07-09T11:32:19.754Z,127968
2017-07-09T11:33:21.801Z,132832
2017-07-09T11:34:23.846Z,133056
2017-07-09T11:35:25.895Z,123200
2017-07-09T11:36:27.935Z,116640
2017-07-09T11:37:29.988Z,115552
2017-07-09T11:38:32.030Z,119808
2017-07-09T11:39:34.078Z,131360
2017-07-09T11:40:36.113Z,131648
2017-07-09T11:41:38.147Z,123936
2017-07-09T11:42:40.193Z,112864
2017-07-09T11:43:42.234Z,108672
2017-07-09T11:44:44.275Z,116352
2017-07-09T11:45:46.315Z,121696
2017-07-09T11:46:48.356Z,123008
2017-07-09T11:47:50.389Z,124640
2017-07-09T11:48:52.429Z,123744
2017-07-09T11:49:54.489Z,130528
2017-07-09T11:50:56.546Z,128352
2017-07-09T11:51:58.583Z,129888
2017-07-09T11:53:00.627Z,136256
2017-07-09T11:54:02.668Z,134048
2017-07-09T11:55:04.714Z,120096
2017-07-09T11:56:06.952Z,117088
2017-07-09T11:57:09.004Z,117984
2017-07-09T11:58:11.044Z,112384
2017-07-09T11:59:13.082Z,104320
2017-07-09T12:00:15.472Z,101856
2017-07-09T12:01:17.522Z,105600
2017-07-09T12:02:19.567Z,105088
2017-07-09T12:03:21.608Z,108448
2017-07-09T12:04:23.718Z,112192
2017-07-09T12:05:25.713Z,124416
2017-07-09T12:06:27.755Z,122656
2017-07-09T12:07:29.799Z,119104
2017-07-09T12:08:31.841Z,119616
2017-07-09T12:09:33.882Z,119104
2017-07-09T12:10:35.924Z,118912
2017-07-09T12:11:38.298Z,110368
2017-07-09T12:12:40.336Z,104576
2017-07-09T12:13:42.388Z,113280
2017-07-09T12:14:44.432Z,124096
2017-07-09T12:15:46.460Z,131840
2017-07-09T12:16:48.841Z,126496
2017-07-09T12:17:50.884Z,124160
2017-07-09T12:18:52.921Z,122368
2017-07-09T12:19:54.966Z,119360
2017-07-09T12:20:57.007Z,116000
2017-07-09T12:21:59.040Z,122208
2017-07-09T12:23:01.094Z,134432
2017-07-09T12:24:03.122Z,140992
2017-07-09T12:25:05.170Z,126496
2017-07-09T12:26:07.211Z,130976
2017-07-09T12:27:09.258Z,137760
2017-07-09T12:28:11.302Z,136992
2017-07-09T12:29:13.340Z,133280
2017-07-09T12:30:15.386Z,133888
2017-07-09T12:31:17.438Z,127904
2017-07-09T12:32:19.825Z,122944
2017-07-09T12:33:21.875Z,124512
2017-07-09T12:34:23.914Z,128288
2017-07-09T12:35:25.950Z,127232
2017-07-09T12:36:27.992Z,118816
2017-07-09T12:37:30.043Z,109312
2017-07-09T12:38:32.096Z,108192
2017-07-09T12:39:34.135Z,112448
2017-07-09T12:40:36.520Z,120128
2017-07-09T12:41:38.567Z,131296
2017-07-09T12:42:40.604Z,134496
2017-07-09T12:43:42.654Z,128160
2017-07-09T12:44:44.703Z,125312
2017-07-09T12:45:46.759Z,125472
2017-07-09T12:46:48.789Z,130816
2017-07-09T12:47:50.830Z,126368
2017-07-09T12:48:52.865Z,125312
2017-07-09T12:49:54.903Z,123584
2017-07-09T12:50:57.631Z,123840
2017-07-09T12:52:00.000Z,132288
2017-07-09T12:53:02.049Z,138464
2017-07-09T12:54:04.097Z,132192
2017-07-09T12:55:06.133Z,119136
2017-07-09T12:56:08.174Z,117120
2017-07-09T12:57:10.212Z,112416
2017-07-09T12:58:12.259Z,113088
2017-07-09T12:59:14.309Z,113952
2017-07-09T13:00:16.355Z,110656
2017-07-09T13:01:18.402Z,111712
2017-07-09T13:02:20.429Z,108928
2017-07-09T13:03:22.475Z,105216
2017-07-09T13:04:24.514Z,108224
2017-07-09T13:05:26.560Z,112864
2017-07-09T13:06:28.620Z,118944
2017-07-09T13:07:30.661Z,126688
2017-07-09T13:08:33.049Z,125280
2017-07-09T13:09:35.095Z,124160
2017-07-09T13:10:37.125Z,120256
2017-07-09T13:11:39.535Z,123648
2017-07-09T13:12:41.580Z,126944
2017-07-09T13:13:43.626Z,132992
2017-07-09T13:14:45.667Z,132800
2017-07-09T13:15:47.705Z,139456
2017-07-09T13:16:49.747Z,138144
2017-07-09T13:17:51.798Z,132384
2017-07-09T13:18:53.838Z,126688
2017-07-09T13:19:55.887Z,129568
2017-07-09T13:20:57.921Z,130432
2017-07-09T13:21:59.979Z,122304
2017-07-09T13:23:02.014Z,121408
2017-07-09T13:24:04.059Z,125632
2017-07-09T13:25:06.105Z,120288
2017-07-09T13:26:08.161Z,124576
2017-07-09T13:27:10.208Z,138944
2017-07-09T13:28:12.252Z,137440
2017-07-09T13:29:14.286Z,119104
2017-07-09T13:30:16.326Z,112352
2017-07-09T13:31:18.378Z,108832
2017-07-09T13:32:20.423Z,104256
2017-07-09T13:33:22.480Z,108480
2017-07-09T13:34:24.519Z,106912
2017-07-09T13:35:26.562Z,103616
2017-07-09T13:36:28.615Z,103872
2017-07-09T13:37:30.994Z,100224
2017-07-09T13:38:33.042Z,101088
2017-07-09T13:39:35.084Z,112256
2017-07-09T13:40:37.132Z,122528
2017-07-09T13:41:39.174Z,120736
2017-07-09T13:42:41.210Z,113920
2017-07-09T13:43:43.610Z,109344
2017-07-09T13:44:45.669Z,105920
2017-07-09T13:45:47.705Z,111200